Time;durP1;ratioP1;P1;durP2;ratioP2;P2;SDS_P1;SDS_P2;PMS_P1;PMS_P2;Temp;Humidity;BMP_temperature;BMP_pressure;BME280_temperature;BME280_humidity;BME280_pressure;Samples;Min_cycle;Max_cycle;Signal;HPM_P1;HPM_P2
2023/03/08 00:01:32;;;;;;;3.53;1.97;;;0.90;99.90;;;;;;5055720;28;20234;-63
2023/03/08 00:03:58;;;;;;;3.67;1.60;;;0.90;99.90;;;;;;5048782;28;20235;-63
2023/03/08 00:06:26;;;;;;;2.20;1.37;;;0.90;99.90;;;;;;5051652;28;20225;-62
2023/03/08 00:08:55;;;;;;;5.53;1.70;;;0.80;99.90;;;;;;5047045;28;21112;-63
2023/03/08 00:11:23;;;;;;;1.60;1.50;;;0.90;99.90;;;;;;5061693;28;20188;-63
2023/03/08 00:13:50;;;;;;;1.27;1.17;;;0.90;99.90;;;;;;5028099;28;20209;-62
2023/03/08 00:16:18;;;;;;;4.77;1.50;;;0.80;99.90;;;;;;5064137;28;20256;-62
2023/03/08 00:18:44;;;;;;;1.97;1.43;;;0.80;99.90;;;;;;5059485;28;20209;-63
2023/03/08 00:21:13;;;;;;;3.90;1.47;;;0.90;99.90;;;;;;5051317;28;20213;-63
2023/03/08 00:23:41;;;;;;;2.33;1.53;;;0.80;99.90;;;;;;5057672;28;20204;-63
2023/03/08 00:26:08;;;;;;;2.23;1.60;;;0.70;99.90;;;;;;5051470;28;21565;-63
2023/03/08 00:28:37;;;;;;;3.13;1.73;;;0.70;99.90;;;;;;5027061;28;20583;-63
2023/03/08 00:31:06;;;;;;;2.23;1.70;;;0.70;99.90;;;;;;5056464;28;20195;-63
2023/03/08 00:33:34;;;;;;;3.70;1.60;;;0.60;99.90;;;;;;5055873;28;20678;-62
2023/03/08 00:36:02;;;;;;;1.23;1.13;;;0.60;99.90;;;;;;5038771;28;21745;-63
2023/03/08 00:38:31;;;;;;;3.30;1.97;;;0.60;99.90;;;;;;5053759;28;20209;-63
2023/03/08 00:40:58;;;;;;;1.90;1.53;;;0.70;99.90;;;;;;5052954;28;20203;-63
2023/03/08 00:43:25;;;;;;;1.27;1.10;;;0.70;99.90;;;;;;5067083;28;20650;-63
2023/03/08 00:45:54;;;;;;;2.03;1.43;;;0.60;99.90;;;;;;5036579;28;20224;-63
2023/03/08 00:48:21;;;;;;;1.97;1.40;;;0.50;99.90;;;;;;5064779;28;20197;-63
2023/03/08 00:50:48;;;;;;;3.53;1.30;;;0.60;99.90;;;;;;5048422;28;21996;-63
2023/03/08 00:53:15;;;;;;;4.57;1.40;;;0.60;99.90;;;;;;5045156;28;20232;-63
2023/03/08 00:55:48;;;;;;;2.23;1.60;;;0.60;99.90;;;;;;5064015;28;20205;-63
2023/03/08 00:58:15;;;;;;;3.80;1.77;;;0.50;99.90;;;;;;5063635;28;20204;-63
2023/03/08 01:00:42;;;;;;;6.60;1.50;;;0.60;99.90;;;;;;5036657;28;20209;-63
2023/03/08 01:03:10;;;;;;;1.60;1.23;;;0.50;99.90;;;;;;5062764;28;20223;-62
2023/03/08 01:05:40;;;;;;;3.50;1.70;;;0.50;99.90;;;;;;5055223;28;20232;-63
2023/03/08 01:08:06;;;;;;;4.50;1.90;;;0.50;99.90;;;;;;5051943;28;20213;-63
2023/03/08 01:10:33;;;;;;;2.73;1.57;;;0.50;99.90;;;;;;5064788;28;20201;-63
2023/03/08 01:13:00;;;;;;;2.03;1.50;;;0.60;99.90;;;;;;5065813;28;20201;-63
2023/03/08 01:15:27;;;;;;;3.60;1.80;;;0.60;99.90;;;;;;5038174;28;20200;-63
2023/03/08 01:17:54;;;;;;;2.93;1.67;;;0.60;99.90;;;;;;5063567;28;20200;-63
2023/03/08 01:20:22;;;;;;;3.67;1.60;;;0.60;99.90;;;;;;5048587;28;20205;-64
2023/03/08 01:22:49;;;;;;;3.73;1.40;;;0.50;99.90;;;;;;5050380;28;20665;-63
2023/03/08 01:25:16;;;;;;;4.60;1.30;;;0.50;99.90;;;;;;5051901;28;20239;-63
2023/03/08 01:27:42;;;;;;;1.30;1.20;;;0.50;99.90;;;;;;5065370;28;20211;-63
2023/03/08 01:30:11;;;;;;;2.20;1.43;;;0.50;99.90;;;;;;5032180;28;20207;-63
2023/03/08 01:32:37;;;;;;;2.77;1.20;;;0.50;99.90;;;;;;5061479;28;20741;-63
2023/03/08 01:35:05;;;;;;;3.77;1.30;;;0.40;99.90;;;;;;5066148;28;20569;-62
2023/03/08 01:37:34;;;;;;;2.87;1.10;;;0.50;99.90;;;;;;5045078;28;21259;-63
2023/03/08 01:40:01;;;;;;;2.27;1.40;;;0.40;99.90;;;;;;5070450;28;20196;-63
2023/03/08 01:42:28;;;;;;;1.63;1.20;;;0.40;99.90;;;;;;5062698;28;20220;-63
2023/03/08 01:44:57;;;;;;;3.63;1.60;;;0.40;99.90;;;;;;5056340;28;20224;-63
2023/03/08 01:47:25;;;;;;;3.43;1.40;;;0.40;99.90;;;;;;5038977;28;20300;-63
2023/03/08 01:49:54;;;;;;;1.60;1.10;;;0.50;99.90;;;;;;5063664;28;20190;-63
2023/03/08 01:52:25;;;;;;;5.37;1.40;;;0.50;99.90;;;;;;5042866;28;23385;-63
2023/03/08 01:54:56;;;;;;;2.10;1.10;;;0.50;99.90;;;;;;5061213;28;20196;-63
2023/03/08 01:57:28;;;;;;;1.57;1.47;;;0.50;99.90;;;;;;5059541;28;20203;-62
2023/03/08 01:59:58;;;;;;;1.60;1.20;;;0.50;99.90;;;;;;5056609;28;20209;-63
2023/03/08 02:02:29;;;;;;;2.50;1.50;;;0.60;99.90;;;;;;5032816;28;20232;-63
2023/03/08 02:04:56;;;;;;;1.30;1.20;;;0.50;99.90;;;;;;5066688;28;20228;-62
2023/03/08 02:07:23;;;;;;;2.67;1.40;;;0.50;99.90;;;;;;5041590;28;20229;-63
2023/03/08 02:09:50;;;;;;;1.73;1.33;;;0.50;99.90;;;;;;5069013;28;20205;-62
2023/03/08 02:12:19;;;;;;;2.03;1.17;;;0.50;99.90;;;;;;5059587;28;20203;-63
2023/03/08 02:14:46;;;;;;;3.87;1.50;;;0.30;99.90;;;;;;5068511;28;20209;-63
2023/03/08 02:17:13;;;;;;;2.00;1.23;;;0.40;99.90;;;;;;5049592;28;20206;-63
2023/03/08 02:19:46;;;;;;;3.07;1.20;;;0.30;99.90;;;;;;5037904;28;20217;-63
2023/03/08 02:22:15;;;;;;;1.63;1.20;;;0.20;99.90;;;;;;5048617;28;20206;-63
2023/03/08 02:24:43;;;;;;;2.90;1.53;;;0.20;99.90;;;;;;5064787;28;20227;-63
2023/03/08 02:27:14;;;;;;;2.57;1.40;;;0.10;99.90;;;;;;5057845;28;20207;-63
2023/03/08 02:29:41;;;;;;;2.63;1.40;;;0.10;99.90;;;;;;5065648;28;20298;-63
2023/03/08 02:32:08;;;;;;;1.63;1.43;;;0.10;99.90;;;;;;5050341;28;20202;-63
2023/03/08 02:34:35;;;;;;;3.00;1.50;;;0.10;99.90;;;;;;5032212;28;20237;-63
2023/03/08 02:37:02;;;;;;;5.53;2.07;;;0.10;99.90;;;;;;5063815;28;20188;-63
2023/03/08 02:39:29;;;;;;;1.60;1.50;;;0.10;99.90;;;;;;5049504;28;20202;-63
2023/03/08 02:41:57;;;;;;;2.37;1.53;;;0.00;99.90;;;;;;5058407;28;20676;-63
2023/03/08 02:44:24;;;;;;;1.60;1.50;;;0.00;99.90;;;;;;5060027;28;20215;-63
2023/03/08 02:46:52;;;;;;;2.10;1.47;;;0.00;99.90;;;;;;5051509;28;20239;-63
2023/03/08 02:49:18;;;;;;;2.73;1.63;;;0.00;99.90;;;;;;5032112;28;20219;-63
2023/03/08 02:51:45;;;;;;;1.40;1.30;;;0.10;99.90;;;;;;5065916;28;20192;-63
2023/03/08 02:54:12;;;;;;;3.97;1.67;;;0.20;99.90;;;;;;5042145;28;20200;-63
2023/03/08 02:56:39;;;;;;;3.33;1.60;;;0.20;99.90;;;;;;5067248;28;20200;-63
2023/03/08 02:59:07;;;;;;;1.83;1.57;;;0.30;99.90;;;;;;5062239;28;20203;-63
2023/03/08 03:01:34;;;;;;;1.93;1.60;;;0.30;99.90;;;;;;5063009;28;20201;-63
2023/03/08 03:04:00;;;;;;;5.00;2.00;;;0.30;99.90;;;;;;5065700;28;20815;-63
2023/03/08 03:06:27;;;;;;;2.43;1.80;;;0.30;99.90;;;;;;5035748;28;20773;-63
2023/03/08 03:08:54;;;;;;;2.63;1.90;;;0.30;99.90;;;;;;5055283;28;20691;-63
2023/03/08 03:11:22;;;;;;;2.80;2.10;;;0.30;99.90;;;;;;5065767;28;20773;-63
2023/03/08 03:13:55;;;;;;;3.20;2.20;;;0.30;99.90;;;;;;5070722;28;20192;-63
2023/03/08 03:16:24;;;;;;;2.57;1.80;;;0.30;99.90;;;;;;5060230;28;20291;-63
2023/03/08 03:18:51;;;;;;;2.00;1.80;;;0.30;99.90;;;;;;5057890;28;20921;-63
2023/03/08 03:21:18;;;;;;;2.73;2.10;;;0.30;99.90;;;;;;5037333;28;20212;-63
2023/03/08 03:23:45;;;;;;;2.40;2.20;;;0.30;99.90;;;;;;5050591;28;20209;-63
2023/03/08 03:26:14;;;;;;;3.43;2.17;;;0.30;99.90;;;;;;5053735;28;20700;-63
2023/03/08 03:28:41;;;;;;;2.73;2.20;;;0.30;99.90;;;;;;5060343;28;20200;-63
2023/03/08 03:31:09;;;;;;;3.07;2.13;;;0.20;99.90;;;;;;5053734;28;20699;-63
2023/03/08 03:33:38;;;;;;;2.87;2.33;;;0.10;99.90;;;;;;5063280;28;20202;-63
2023/03/08 03:36:05;;;;;;;2.27;1.80;;;0.10;99.90;;;;;;5033168;28;26431;-63
2023/03/08 03:38:32;;;;;;;4.37;2.10;;;0.20;99.90;;;;;;5064132;28;20197;-62
2023/03/08 03:41:03;;;;;;;6.43;2.70;;;0.20;99.90;;;;;;5047353;28;20364;-63
2023/03/08 03:43:29;;;;;;;2.50;2.30;;;0.20;99.90;;;;;;5065417;28;20208;-63
2023/03/08 03:45:57;;;;;;;4.83;2.77;;;0.20;99.90;;;;;;5051033;28;20225;-63
2023/03/08 03:48:24;;;;;;;3.50;2.57;;;0.20;99.90;;;;;;5063426;28;20200;-63
2023/03/08 03:50:56;;;;;;;3.57;2.40;;;0.10;99.90;;;;;;5059040;28;20208;-62
2023/03/08 03:53:23;;;;;;;3.27;2.43;;;0.20;99.90;;;;;;5030991;28;20308;-63
2023/03/08 03:55:50;;;;;;;3.60;2.50;;;0.10;99.90;;;;;;5043751;28;20205;-63
2023/03/08 03:58:17;;;;;;;5.80;2.80;;;0.20;99.90;;;;;;5059456;28;20194;-63
2023/03/08 04:00:44;;;;;;;3.40;2.70;;;0.10;99.90;;;;;;5057489;28;20198;-63
2023/03/08 04:03:11;;;;;;;4.23;2.53;;;0.00;99.90;;;;;;5052442;28;20485;-63
2023/03/08 04:05:38;;;;;;;2.93;2.50;;;0.00;99.90;;;;;;5061959;28;20228;-63
2023/03/08 04:08:07;;;;;;;3.13;2.50;;;0.10;99.90;;;;;;5030887;28;20684;-63
2023/03/08 04:10:34;;;;;;;3.73;2.70;;;0.00;99.90;;;;;;5050210;28;20739;-63
2023/03/08 04:13:01;;;;;;;4.83;3.13;;;0.00;99.90;;;;;;5061640;28;20205;-63
2023/03/08 04:15:28;;;;;;;2.83;2.60;;;0.10;99.90;;;;;;5062151;28;20298;-63
2023/03/08 04:17:55;;;;;;;4.33;2.67;;;0.10;99.90;;;;;;5051625;28;20202;-63
2023/03/08 04:20:22;;;;;;;4.57;2.70;;;0.00;99.90;;;;;;5062367;28;20208;-63
2023/03/08 04:22:49;;;;;;;5.33;3.10;;;0.00;99.90;;;;;;5040302;28;20205;-63
2023/03/08 04:25:17;;;;;;;3.53;3.00;;;0.00;99.90;;;;;;5054433;28;21525;-63
2023/03/08 04:27:44;;;;;;;5.07;2.73;;;0.00;99.90;;;;;;5042025;28;20208;-63
2023/03/08 04:30:12;;;;;;;3.37;2.97;;;0.00;99.90;;;;;;5062607;28;20473;-63
2023/03/08 04:32:39;;;;;;;3.37;2.87;;;0.00;99.90;;;;;;5055799;28;20205;-63
2023/03/08 04:35:06;;;;;;;4.93;3.17;;;-0.10;99.90;;;;;;5061692;28;20596;-63
2023/03/08 04:37:34;;;;;;;10.07;3.20;;;-0.10;99.90;;;;;;5057180;28;20244;-63
2023/03/08 04:40:01;;;;;;;4.53;3.23;;;0.00;99.90;;;;;;5029869;28;20204;-63
2023/03/08 04:42:29;;;;;;;4.20;3.20;;;-0.10;99.90;;;;;;5038091;28;20211;-63
2023/03/08 04:44:56;;;;;;;5.23;3.30;;;-0.10;99.90;;;;;;5062158;28;20196;-63
2023/03/08 04:47:23;;;;;;;6.23;3.17;;;-0.10;99.90;;;;;;5041956;28;20603;-63
2023/03/08 04:49:49;;;;;;;6.53;3.40;;;-0.10;99.90;;;;;;5058247;28;20768;-63
2023/03/08 04:52:16;;;;;;;6.53;3.30;;;-0.20;99.90;;;;;;5064427;28;20209;-63
2023/03/08 04:54:43;;;;;;;8.07;4.20;;;-0.20;99.90;;;;;;5017814;28;20227;-64
2023/03/08 04:57:10;;;;;;;9.77;3.90;;;-0.10;99.90;;;;;;5039513;28;20209;-63
2023/03/08 04:59:38;;;;;;;3.60;3.30;;;-0.10;99.90;;;;;;5057949;28;20204;-63
2023/03/08 05:02:05;;;;;;;5.20;3.73;;;-0.10;99.90;;;;;;5057527;28;20239;-63
2023/03/08 05:04:31;;;;;;;6.27;3.83;;;-0.10;99.90;;;;;;5047731;28;20291;-63
2023/03/08 05:06:58;;;;;;;7.43;3.90;;;-0.10;99.90;;;;;;5060400;28;20315;-62
2023/03/08 05:09:25;;;;;;;10.73;4.13;;;-0.30;99.90;;;;;;5032993;28;20203;-63
2023/03/08 05:11:52;;;;;;;8.80;4.13;;;-0.20;99.90;;;;;;5066391;28;20199;-62
2023/03/08 05:14:20;;;;;;;4.93;3.73;;;-0.30;99.90;;;;;;5050974;28;20205;-63
2023/03/08 05:16:48;;;;;;;7.20;3.60;;;-0.30;99.90;;;;;;5071035;28;20190;-63
2023/03/08 05:19:15;;;;;;;4.53;3.23;;;-0.30;99.90;;;;;;5051341;28;20202;-63
2023/03/08 05:21:42;;;;;;;4.43;3.27;;;-0.30;99.90;;;;;;5065116;28;20688;-62
2023/03/08 05:24:09;;;;;;;5.33;3.50;;;-0.30;99.90;;;;;;5043301;28;20217;-63
2023/03/08 05:26:36;;;;;;;5.23;3.60;;;-0.20;99.90;;;;;;5037948;28;20720;-63
2023/03/08 05:29:05;;;;;;;4.60;3.73;;;-0.20;99.90;;;;;;5044468;28;20198;-63
2023/03/08 05:31:32;;;;;;;7.23;3.30;;;-0.10;99.90;;;;;;5027547;28;20236;-63
2023/03/08 05:34:00;;;;;;;5.93;3.33;;;-0.20;99.90;;;;;;5049361;28;20227;-63
2023/03/08 05:36:27;;;;;;;6.27;3.70;;;-0.10;99.90;;;;;;5034632;28;24471;-63
2023/03/08 05:38:54;;;;;;;5.40;3.43;;;-0.10;99.90;;;;;;5047297;28;20197;-62
2023/03/08 05:41:22;;;;;;;5.20;3.53;;;-0.10;99.90;;;;;;5008952;28;20601;-63
2023/03/08 05:43:48;;;;;;;4.97;3.47;;;0.00;99.90;;;;;;5047294;28;20196;-63
2023/03/08 05:46:17;;;;;;;5.67;3.57;;;-0.10;99.90;;;;;;5038980;28;21277;-63
2023/03/08 05:48:44;;;;;;;6.17;3.27;;;-0.10;99.90;;;;;;5042547;28;20212;-63
2023/03/08 05:51:14;;;;;;;5.97;3.90;;;-0.10;99.90;;;;;;5041825;28;20737;-63
2023/03/08 05:53:41;;;;;;;10.60;4.40;;;-0.10;99.90;;;;;;5052476;28;20237;-63
2023/03/08 05:56:09;;;;;;;6.30;3.97;;;0.00;99.90;;;;;;5033804;28;20748;-63
2023/03/08 05:58:36;;;;;;;8.70;4.63;;;0.00;99.90;;;;;;5040692;28;21482;-63
2023/03/08 06:01:10;;;;;;;6.40;4.60;;;0.00;99.90;;;;;;5041177;28;20735;-63
2023/03/08 06:03:37;;;;;;;10.00;4.50;;;0.00;99.90;;;;;;5029472;28;20217;-63
2023/03/08 06:06:04;;;;;;;8.47;4.67;;;0.00;99.90;;;;;;5039155;28;20225;-63
2023/03/08 06:08:32;;;;;;;7.50;4.93;;;0.00;99.90;;;;;;5060678;28;20239;-63
2023/03/08 06:10:59;;;;;;;6.37;5.17;;;-0.10;99.90;;;;;;5025574;28;21154;-63
2023/03/08 06:13:26;;;;;;;9.93;5.20;;;-0.10;99.90;;;;;;5039503;28;20712;-63
2023/03/08 06:15:55;;;;;;;10.17;5.03;;;-0.10;99.90;;;;;;5030163;28;20236;-63
2023/03/08 06:18:22;;;;;;;10.50;5.20;;;0.00;99.90;;;;;;5022815;28;20313;-63
2023/03/08 06:20:56;;;;;;;7.57;5.10;;;0.00;99.90;;;;;;5043909;28;20760;-63
2023/03/08 06:23:23;;;;;;;7.13;5.60;;;0.10;99.90;;;;;;5040538;28;20274;-63
2023/03/08 06:25:51;;;;;;;9.63;5.67;;;0.00;99.90;;;;;;5028781;28;20417;-63
2023/03/08 06:28:18;;;;;;;8.13;5.80;;;0.10;99.90;;;;;;5052445;28;20220;-63
2023/03/08 06:30:48;;;;;;;9.53;5.10;;;0.10;99.90;;;;;;5043885;28;20745;-63
2023/03/08 06:33:15;;;;;;;9.80;4.87;;;0.10;99.90;;;;;;5041968;28;20456;-63
2023/03/08 06:35:42;;;;;;;9.30;5.30;;;0.10;99.90;;;;;;5041609;28;20213;-63
2023/03/08 06:38:08;;;;;;;9.90;5.67;;;-0.10;99.90;;;;;;5043597;28;20204;-63
2023/03/08 06:40:35;;;;;;;10.43;5.07;;;0.00;99.90;;;;;;5063448;28;20247;-63
2023/03/08 06:43:04;;;;;;;7.80;5.87;;;0.00;99.90;;;;;;5038549;28;20223;-63
2023/03/08 06:45:32;;;;;;;8.40;5.40;;;0.10;99.90;;;;;;5049210;28;20705;-63
2023/03/08 06:47:59;;;;;;;8.10;5.93;;;0.30;99.90;;;;;;5063441;28;20437;-62
2023/03/08 06:50:26;;;;;;;9.87;6.23;;;0.10;99.90;;;;;;5052889;28;20682;-63
2023/03/08 06:52:52;;;;;;;11.43;5.50;;;0.10;99.90;;;;;;5065254;28;20198;-63
2023/03/08 06:55:19;;;;;;;8.13;5.60;;;0.10;99.90;;;;;;5065121;28;20728;-63
2023/03/08 06:57:46;;;;;;;9.83;5.97;;;0.20;99.90;;;;;;5026974;28;20777;-62
2023/03/08 07:00:15;;;;;;;7.30;5.60;;;0.10;99.90;;;;;;5049386;28;20297;-63
2023/03/08 07:02:42;;;;;;;10.07;6.23;;;0.10;99.90;;;;;;5051432;28;20236;-63
2023/03/08 07:05:10;;;;;;;9.13;6.47;;;0.20;99.90;;;;;;5055779;28;20898;-63
2023/03/08 07:07:38;;;;;;;11.80;6.50;;;0.20;99.90;;;;;;5032197;28;20332;-63
2023/03/08 07:10:06;;;;;;;11.47;7.70;;;0.20;99.90;;;;;;5063205;28;20204;-63
2023/03/08 07:12:35;;;;;;;13.73;6.57;;;0.20;99.90;;;;;;5024118;28;20248;-63
2023/03/08 07:15:02;;;;;;;11.37;7.20;;;0.20;99.90;;;;;;5061988;28;20349;-63
2023/03/08 07:17:31;;;;;;;10.83;7.60;;;0.30;99.90;;;;;;5034677;28;20316;-63
2023/03/08 07:19:58;;;;;;;10.90;7.10;;;0.30;99.90;;;;;;5066800;28;20224;-63
2023/03/08 07:22:25;;;;;;;12.07;6.87;;;0.30;99.90;;;;;;5052657;28;20281;-63
2023/03/08 07:24:51;;;;;;;9.83;6.70;;;0.30;99.90;;;;;;5062674;28;20195;-63
2023/03/08 07:27:18;;;;;;;11.13;7.17;;;0.30;99.90;;;;;;5048286;28;20228;-63
2023/03/08 07:29:45;;;;;;;8.73;6.83;;;0.40;99.90;;;;;;5047350;28;20240;-63
2023/03/08 07:32:12;;;;;;;10.60;7.43;;;0.40;99.90;;;;;;5059878;28;20220;-63
2023/03/08 07:34:40;;;;;;;8.03;6.50;;;0.50;99.90;;;;;;5050259;28;20496;-63
2023/03/08 07:37:11;;;;;;;9.70;6.47;;;0.50;99.90;;;;;;5051745;28;20201;-63
2023/03/08 07:39:38;;;;;;;12.77;7.00;;;0.50;99.90;;;;;;5063009;28;20200;-63
2023/03/08 07:42:05;;;;;;;14.23;7.23;;;0.50;99.90;;;;;;5064508;28;20585;-63
2023/03/08 07:44:32;;;;;;;10.63;6.43;;;0.60;99.90;;;;;;5035669;28;20805;-63
2023/03/08 07:46:59;;;;;;;9.73;6.90;;;0.60;99.90;;;;;;5067276;28;20424;-63
2023/03/08 07:49:26;;;;;;;8.40;6.07;;;0.70;99.90;;;;;;5052530;28;20235;-63
2023/03/08 07:51:54;;;;;;;10.40;6.97;;;0.70;99.90;;;;;;5059857;28;20205;-63
2023/03/08 07:54:21;;;;;;;12.10;6.80;;;0.70;99.90;;;;;;5067218;28;20202;-63
2023/03/08 07:56:48;;;;;;;13.27;7.77;;;0.80;99.90;;;;;;5066195;28;20897;-63
2023/03/08 07:59:15;;;;;;;13.73;7.03;;;0.70;99.90;;;;;;5061728;28;20208;-63
2023/03/08 08:01:41;;;;;;;11.60;7.33;;;0.80;99.90;;;;;;5045577;28;20792;-63
2023/03/08 08:04:08;;;;;;;12.67;7.63;;;0.80;99.90;;;;;;5053781;28;20208;-63
2023/03/08 08:06:36;;;;;;;16.57;7.63;;;0.80;99.90;;;;;;5050845;28;20314;-63
2023/03/08 08:09:04;;;;;;;15.53;8.57;;;0.90;99.90;;;;;;5063497;28;20197;-63
2023/03/08 08:11:31;;;;;;;16.20;9.97;;;0.90;99.90;;;;;;5060151;28;20195;-63
2023/03/08 08:13:58;;;;;;;17.13;8.60;;;0.90;99.90;;;;;;5056864;28;20607;-63
2023/03/08 08:16:25;;;;;;;14.20;9.13;;;1.00;99.90;;;;;;5032199;28;20215;-63
2023/03/08 08:18:53;;;;;;;16.63;8.77;;;1.00;99.90;;;;;;5048718;28;20216;-63
2023/03/08 08:21:20;;;;;;;23.30;10.17;;;1.00;99.90;;;;;;5066221;28;20499;-63
2023/03/08 08:23:47;;;;;;;17.20;8.37;;;1.00;99.90;;;;;;5054927;28;20209;-63
2023/03/08 08:26:17;;;;;;;20.87;9.47;;;1.00;99.90;;;;;;5067010;28;20200;-63
2023/03/08 08:28:45;;;;;;;15.90;9.80;;;1.00;99.90;;;;;;5059947;28;20249;-63
2023/03/08 08:31:15;;;;;;;20.47;10.17;;;1.10;99.90;;;;;;5037565;28;20205;-63
2023/03/08 08:33:42;;;;;;;13.87;9.00;;;1.10;99.90;;;;;;5060941;28;20194;-63
2023/03/08 08:36:12;;;;;;;16.23;9.60;;;1.20;99.90;;;;;;5062361;28;20622;-63
2023/03/08 08:38:39;;;;;;;13.83;8.80;;;1.20;99.90;;;;;;5054019;28;20205;-63
2023/03/08 08:41:07;;;;;;;16.43;9.37;;;1.20;99.90;;;;;;5066439;28;20500;-63
2023/03/08 08:43:36;;;;;;;15.73;8.97;;;1.20;99.90;;;;;;5065957;28;20661;-63
2023/03/08 08:46:05;;;;;;;14.13;8.73;;;1.20;99.90;;;;;;5036197;28;20543;-63
2023/03/08 08:48:32;;;;;;;14.93;8.37;;;1.30;99.90;;;;;;5069662;28;20226;-63
2023/03/08 08:51:00;;;;;;;12.67;8.57;;;1.30;99.90;;;;;;5057213;28;20517;-63
2023/03/08 08:53:27;;;;;;;14.60;8.27;;;1.30;99.90;;;;;;5067304;28;20582;-63
2023/03/08 08:55:54;;;;;;;16.93;9.40;;;1.30;99.90;;;;;;5038180;28;20461;-63
2023/03/08 08:58:21;;;;;;;15.00;8.63;;;1.30;99.90;;;;;;5065457;28;20205;-63
2023/03/08 09:00:49;;;;;;;15.13;8.03;;;1.30;99.90;;;;;;5038016;28;20217;-63
2023/03/08 09:03:16;;;;;;;13.27;7.50;;;2.30;99.90;;;;;;5060856;28;20232;-63
2023/03/08 09:05:44;;;;;;;12.97;8.63;;;1.30;99.90;;;;;;5051195;28;20284;-63
2023/03/08 09:08:11;;;;;;;11.53;7.50;;;1.30;99.90;;;;;;5063493;28;20219;-63
2023/03/08 09:10:40;;;;;;;13.20;7.23;;;1.30;99.90;;;;;;5045101;28;20215;-63
2023/03/08 09:13:07;;;;;;;13.97;8.23;;;1.30;99.90;;;;;;5062542;28;20707;-63
2023/03/08 09:15:35;;;;;;;14.50;8.83;;;1.30;99.90;;;;;;5062280;28;20244;-63
2023/03/08 09:18:04;;;;;;;15.00;9.30;;;1.40;99.90;;;;;;5036573;28;20446;-63
2023/03/08 09:20:31;;;;;;;12.70;8.17;;;1.50;99.90;;;;;;5064203;28;20195;-63
2023/03/08 09:22:58;;;;;;;16.90;9.50;;;1.40;99.90;;;;;;5048411;28;20208;-63
2023/03/08 09:25:24;;;;;;;15.50;9.57;;;1.50;99.90;;;;;;5055736;28;20209;-63
2023/03/08 09:27:51;;;;;;;18.33;10.37;;;1.50;99.90;;;;;;5057670;28;20415;-63
2023/03/08 09:30:18;;;;;;;14.70;8.60;;;1.50;99.90;;;;;;5066665;28;20676;-64
2023/03/08 09:32:45;;;;;;;20.13;9.63;;;1.50;99.90;;;;;;5043554;28;20196;-63
2023/03/08 09:35:14;;;;;;;14.13;9.17;;;1.50;99.90;;;;;;5056433;28;20206;-63
2023/03/08 09:37:41;;;;;;;14.80;8.70;;;1.60;99.90;;;;;;5051854;28;20211;-63
2023/03/08 09:40:19;;;;;;;15.10;9.07;;;1.60;99.90;;;;;;5061805;28;20451;-63
2023/03/08 09:42:46;;;;;;;18.63;10.73;;;1.70;99.90;;;;;;5049222;28;20222;-63
2023/03/08 09:45:20;;;;;;;17.83;9.90;;;1.70;99.90;;;;;;5067118;28;20500;-63
2023/03/08 09:47:51;;;;;;;19.77;9.10;;;1.80;99.90;;;;;;5037222;28;20784;-63
2023/03/08 09:50:31;;;;;;;15.83;9.77;;;1.90;99.90;;;;;;5060290;28;20827;-63
2023/03/08 09:53:00;;;;;;;21.60;11.33;;;1.80;99.90;;;;;;5053435;28;20199;-64
2023/03/08 09:55:29;;;;;;;16.23;10.13;;;1.90;99.90;;;;;;5064518;28;20196;-63
2023/03/08 09:57:59;;;;;;;15.87;9.57;;;1.90;99.90;;;;;;5042507;28;20262;-63
2023/03/08 10:00:30;;;;;;;20.07;12.60;;;2.00;99.90;;;;;;5069827;28;20286;-63
2023/03/08 10:03:13;;;;;;;22.37;11.53;;;2.00;99.90;;;;;;5026936;28;20751;-63
2023/03/08 10:05:49;;;;;;;16.53;10.23;;;2.00;99.90;;;;;;5068729;28;20200;-63
2023/03/08 10:08:20;;;;;;;18.77;10.27;;;2.10;99.90;;;;;;5055452;28;20796;-63
2023/03/08 10:10:54;;;;;;;19.60;11.17;;;2.10;99.90;;;;;;5063518;28;20195;-63
2023/03/08 10:13:31;;;;;;;21.27;12.13;;;2.10;99.90;;;;;;5058986;28;20203;-64
2023/03/08 10:16:06;;;;;;;28.00;13.30;;;2.10;99.90;;;;;;5059691;28;20714;-64
2023/03/08 10:18:39;;;;;;;23.63;14.13;;;2.20;99.90;;;;;;5051207;28;20665;-64
2023/03/08 10:21:09;;;;;;;30.30;15.00;;;2.20;99.90;;;;;;5051911;28;20208;-63
2023/03/08 10:23:40;;;;;;;29.33;14.93;;;2.30;99.90;;;;;;5052765;28;20201;-63
2023/03/08 10:26:10;;;;;;;27.40;15.10;;;2.30;99.90;;;;;;5059964;28;20207;-63
2023/03/08 10:28:37;;;;;;;33.63;17.47;;;2.40;99.90;;;;;;5056922;28;20227;-63
2023/03/08 10:31:18;;;;;;;35.57;17.57;;;2.40;99.90;;;;;;5063973;28;20389;-63
2023/03/08 10:33:46;;;;;;;31.33;16.90;;;2.40;99.90;;;;;;5045510;28;20202;-63
2023/03/08 10:36:19;;;;;;;28.63;16.30;;;2.40;99.90;;;;;;5065672;28;20231;-63
2023/03/08 10:38:57;;;;;;;28.00;16.37;;;2.40;99.90;;;;;;5055946;28;20199;-63
2023/03/08 10:41:25;;;;;;;29.37;15.73;;;2.50;99.90;;;;;;5057948;28;20200;-63
2023/03/08 10:43:54;;;;;;;28.97;16.63;;;2.50;99.90;;;;;;5047534;28;20231;-63
2023/03/08 10:46:23;;;;;;;38.97;19.57;;;2.50;99.90;;;;;;5067619;28;20200;-63
2023/03/08 10:48:50;;;;;;;35.90;20.17;;;2.60;99.90;;;;;;5037835;28;20593;-64
2023/03/08 10:51:20;;;;;;;34.17;19.30;;;2.60;99.90;;;;;;5066425;28;20936;-63
2023/03/08 10:53:55;;;;;;;27.33;16.43;;;2.60;99.90;;;;;;5052162;28;20205;-63
2023/03/08 10:56:25;;;;;;;22.87;14.50;;;2.70;99.90;;;;;;5054233;28;20196;-63
2023/03/08 10:58:55;;;;;;;25.90;14.87;;;2.70;99.90;;;;;;5049574;28;20697;-63
2023/03/08 11:01:27;;;;;;;20.13;12.17;;;2.80;99.90;;;;;;5069227;28;20669;-63
2023/03/08 11:04:02;;;;;;;21.77;11.90;;;2.90;99.90;;;;;;5060425;28;20193;-63
2023/03/08 11:06:31;;;;;;;19.43;10.53;;;2.90;99.90;;;;;;5035229;28;20203;-63
2023/03/08 11:09:01;;;;;;;18.53;11.13;;;2.90;99.90;;;;;;5063154;28;20893;-63
2023/03/08 11:11:27;;;;;;;17.23;10.07;;;3.00;99.90;;;;;;5055460;28;20232;-63
2023/03/08 11:13:55;;;;;;;21.13;10.53;;;3.00;99.90;;;;;;5047230;28;20956;-63
2023/03/08 11:16:35;;;;;;;17.80;9.93;;;2.90;99.90;;;;;;5062886;28;20227;-63
2023/03/08 11:19:10;;;;;;;15.20;9.67;;;3.00;99.90;;;;;;5051543;28;20201;-63
2023/03/08 11:21:52;;;;;;;17.60;9.50;;;3.00;99.90;;;;;;5036829;28;20229;-63
2023/03/08 11:24:32;;;;;;;16.23;8.53;;;3.10;99.90;;;;;;5065835;28;20614;-63
2023/03/08 11:27:14;;;;;;;12.43;8.30;;;3.20;99.90;;;;;;5054343;28;20558;-63
2023/03/08 11:29:53;;;;;;;15.93;8.23;;;3.20;99.90;;;;;;5059861;28;20230;-63
2023/03/08 11:32:34;;;;;;;13.47;7.53;;;3.30;99.90;;;;;;5065530;28;20709;-63
2023/03/08 11:35:11;;;;;;;13.63;8.17;;;3.40;99.90;;;;;;5025268;28;22105;-64
2023/03/08 11:37:44;;;;;;;13.40;8.77;;;3.30;99.90;;;;;;5063293;28;20203;-63
2023/03/08 11:40:22;;;;;;;17.50;8.17;;;3.30;99.90;;;;;;5064967;28;20777;-63
2023/03/08 11:42:58;;;;;;;17.43;7.80;;;3.30;99.90;;;;;;5053680;28;20279;-63
2023/03/08 11:45:29;;;;;;;20.00;8.20;;;3.20;99.90;;;;;;5067122;28;20204;-63
2023/03/08 11:48:20;;;;;;;18.73;8.23;;;3.20;99.90;;;;;;5050131;28;20253;-63
2023/03/08 11:50:52;;;;;;;11.73;6.87;;;3.20;99.90;;;;;;5027609;28;20219;-64
2023/03/08 11:53:29;;;;;;;12.03;7.37;;;3.20;99.90;;;;;;5064315;28;20641;-63
2023/03/08 11:56:19;;;;;;;12.77;7.30;;;3.20;99.90;;;;;;5065039;28;20373;-63
2023/03/08 11:58:50;;;;;;;12.77;8.50;;;3.20;99.90;;;;;;5038901;28;20204;-63
2023/03/08 12:01:21;;;;;;;11.10;7.00;;;3.20;99.90;;;;;;5049996;28;20307;-63
2023/03/08 12:03:52;;;;;;;10.20;6.67;;;3.30;99.90;;;;;;5063241;28;20224;-63
2023/03/08 12:06:24;;;;;;;10.20;6.30;;;3.30;99.90;;;;;;5024095;28;20585;-64
2023/03/08 12:08:57;;;;;;;13.57;6.77;;;3.30;99.90;;;;;;5066811;28;20712;-63
2023/03/08 12:11:29;;;;;;;10.20;6.50;;;3.30;99.90;;;;;;5042120;28;20291;-63
2023/03/08 12:14:01;;;;;;;10.87;6.53;;;3.30;99.90;;;;;;5041825;28;20200;-63
2023/03/08 12:16:35;;;;;;;10.73;6.40;;;3.40;99.90;;;;;;5042674;28;22911;-63
2023/03/08 12:19:10;;;;;;;10.63;6.07;;;3.50;99.90;;;;;;5045931;28;20195;-63
2023/03/08 12:21:42;;;;;;;9.70;6.13;;;3.50;99.90;;;;;;5048028;28;20222;-63
2023/03/08 12:24:31;;;;;;;9.40;5.67;;;3.60;99.90;;;;;;5032479;28;20200;-63
2023/03/08 12:27:04;;;;;;;9.13;5.20;;;3.70;99.90;;;;;;5050645;28;20539;-63
2023/03/08 12:29:36;;;;;;;11.07;6.27;;;3.70;99.90;;;;;;5047787;28;20221;-63
2023/03/08 12:32:04;;;;;;;14.90;6.20;;;3.90;99.90;;;;;;5047539;28;20414;-63
2023/03/08 12:34:39;;;;;;;9.47;5.73;;;3.90;99.90;;;;;;5049327;28;20208;-63
2023/03/08 12:37:17;;;;;;;11.17;5.57;;;3.90;99.90;;;;;;5020131;28;20231;-63
2023/03/08 12:39:56;;;;;;;11.20;5.40;;;3.90;99.90;;;;;;5058122;28;20211;-63
2023/03/08 12:42:30;;;;;;;8.23;5.37;;;3.90;99.90;;;;;;5065311;28;20200;-64
2023/03/08 12:45:25;;;;;;;9.00;5.47;;;3.90;99.90;;;;;;5044996;28;20224;-64
2023/03/08 12:48:00;;;;;;;11.73;5.97;;;3.90;99.90;;;;;;5040946;28;20200;-64
2023/03/08 12:50:28;;;;;;;10.63;6.60;;;3.80;99.90;;;;;;5053298;28;20291;-64
2023/03/08 12:52:57;;;;;;;13.83;7.40;;;3.80;99.90;;;;;;5018023;28;20247;-64
2023/03/08 12:55:30;;;;;;;11.57;6.97;;;3.90;99.90;;;;;;5060799;28;20887;-64
2023/03/08 12:58:00;;;;;;;14.33;8.37;;;3.90;99.90;;;;;;5057959;28;20196;-64
2023/03/08 13:00:29;;;;;;;17.23;8.30;;;4.10;99.90;;;;;;5051397;28;20196;-64